sensor_id;sensor_type;location;lat;lon;timestamp;pressure;altitude;pressure_sealevel;temperature;humidity
21185;BME280;18176;49.502;11.754;2023-02-19T00:02:06;97245.63;;;11.45;78.88
21185;BME280;18176;49.502;11.754;2023-02-19T00:06:09;97229.06;;;11.61;78.98
21185;BME280;18176;49.502;11.754;2023-02-19T00:10:10;97225.38;;;11.62;78.84
21185;BME280;18176;49.502;11.754;2023-02-19T00:14:16;97223.75;;;11.61;78.99
21185;BME280;18176;49.502;11.754;2023-02-19T00:18:17;97223.56;;;11.74;78.71
21185;BME280;18176;49.502;11.754;2023-02-19T00:22:19;97227.19;;;11.50;79.23
21185;BME280;18176;49.502;11.754;2023-02-19T00:26:21;97211.78;;;11.70;78.66
21185;BME280;18176;49.502;11.754;2023-02-19T00:30:25;97207.38;;;11.64;78.42
21185;BME280;18176;49.502;11.754;2023-02-19T00:34:26;97213.34;;;11.48;79.06
21185;BME280;18176;49.502;11.754;2023-02-19T00:38:26;97213.41;;;11.71;78.33
21185;BME280;18176;49.502;11.754;2023-02-19T00:42:27;97225.00;;;11.59;78.47
21185;BME280;18176;49.502;11.754;2023-02-19T00:46:34;97222.41;;;11.29;79.41
21185;BME280;18176;49.502;11.754;2023-02-19T00:50:35;97214.44;;;11.29;79.86
21185;BME280;18176;49.502;11.754;2023-02-19T00:54:35;97217.94;;;11.41;79.88
21185;BME280;18176;49.502;11.754;2023-02-19T00:58:36;97201.75;;;11.31;80.28
21185;BME280;18176;49.502;11.754;2023-02-19T01:02:40;97204.22;;;11.33;79.88
21185;BME280;18176;49.502;11.754;2023-02-19T01:06:40;97185.34;;;11.11;80.83
21185;BME280;18176;49.502;11.754;2023-02-19T01:10:42;97198.91;;;11.03;81.11
21185;BME280;18176;49.502;11.754;2023-02-19T01:14:42;97171.94;;;11.06;81.52
21185;BME280;18176;49.502;11.754;2023-02-19T01:18:47;97180.50;;;11.08;81.51
21185;BME280;18176;49.502;11.754;2023-02-19T01:22:47;97174.13;;;10.97;82.34
21185;BME280;18176;49.502;11.754;2023-02-19T01:26:48;97178.88;;;11.07;82.24
21185;BME280;18176;49.502;11.754;2023-02-19T01:30:48;97175.56;;;11.11;81.55
21185;BME280;18176;49.502;11.754;2023-02-19T01:34:52;97165.56;;;11.25;80.83
21185;BME280;18176;49.502;11.754;2023-02-19T01:38:53;97167.16;;;11.26;81.44
21185;BME280;18176;49.502;11.754;2023-02-19T01:42:54;97159.09;;;11.21;82.41
21185;BME280;18176;49.502;11.754;2023-02-19T01:46:54;97139.91;;;11.07;83.12
21185;BME280;18176;49.502;11.754;2023-02-19T01:51:06;97126.94;;;10.88;85.04
21185;BME280;18176;49.502;11.754;2023-02-19T01:55:15;97131.81;;;10.91;86.00
21185;BME280;18176;49.502;11.754;2023-02-19T01:59:17;97103.41;;;10.68;86.96
21185;BME280;18176;49.502;11.754;2023-02-19T02:03:18;97112.81;;;10.64;87.67
21185;BME280;18176;49.502;11.754;2023-02-19T02:07:22;97108.03;;;10.73;87.55
21185;BME280;18176;49.502;11.754;2023-02-19T02:11:35;97100.38;;;10.65;88.21
21185;BME280;18176;49.502;11.754;2023-02-19T02:15:44;97087.00;;;10.59;88.37
21185;BME280;18176;49.502;11.754;2023-02-19T02:20:26;97105.69;;;10.65;88.37
21185;BME280;18176;49.502;11.754;2023-02-19T02:24:59;97110.25;;;10.57;88.15
21185;BME280;18176;49.502;11.754;2023-02-19T02:29:51;97105.25;;;10.68;87.29
21185;BME280;18176;49.502;11.754;2023-02-19T02:34:03;97099.34;;;10.66;88.02
21185;BME280;18176;49.502;11.754;2023-02-19T02:38:10;97095.72;;;10.48;88.39
21185;BME280;18176;49.502;11.754;2023-02-19T02:42:12;97099.72;;;10.81;87.91
21185;BME280;18176;49.502;11.754;2023-02-19T02:46:42;97083.22;;;10.67;88.47
21185;BME280;18176;49.502;11.754;2023-02-19T02:50:49;97081.38;;;10.68;88.49
21185;BME280;18176;49.502;11.754;2023-02-19T02:54:52;97071.50;;;10.75;88.13
21185;BME280;18176;49.502;11.754;2023-02-19T02:59:08;97078.75;;;10.68;87.95
21185;BME280;18176;49.502;11.754;2023-02-19T03:03:14;97077.88;;;10.55;88.97
21185;BME280;18176;49.502;11.754;2023-02-19T03:07:14;97071.16;;;10.41;89.88
21185;BME280;18176;49.502;11.754;2023-02-19T03:11:15;97057.38;;;10.21;91.16
21185;BME280;18176;49.502;11.754;2023-02-19T03:15:34;97061.00;;;10.38;90.76
21185;BME280;18176;49.502;11.754;2023-02-19T03:19:55;97044.03;;;10.57;89.11
21185;BME280;18176;49.502;11.754;2023-02-19T03:23:58;97041.31;;;10.34;90.62
21185;BME280;18176;49.502;11.754;2023-02-19T03:28:24;97033.34;;;10.34;90.83
21185;BME280;18176;49.502;11.754;2023-02-19T03:32:43;97064.13;;;10.35;90.92
21185;BME280;18176;49.502;11.754;2023-02-19T03:37:01;97036.31;;;10.56;90.37
21185;BME280;18176;49.502;11.754;2023-02-19T03:41:08;97030.38;;;10.31;90.63
21185;BME280;18176;49.502;11.754;2023-02-19T03:45:32;97034.66;;;10.43;91.54
21185;BME280;18176;49.502;11.754;2023-02-19T03:49:44;97018.31;;;10.46;90.78
21185;BME280;18176;49.502;11.754;2023-02-19T03:54:02;97015.94;;;10.56;89.73
21185;BME280;18176;49.502;11.754;2023-02-19T03:58:13;97023.63;;;10.46;89.58
21185;BME280;18176;49.502;11.754;2023-02-19T04:02:22;97029.03;;;10.51;89.48
21185;BME280;18176;49.502;11.754;2023-02-19T04:06:29;97020.13;;;10.34;89.93
21185;BME280;18176;49.502;11.754;2023-02-19T04:10:34;97010.31;;;10.23;89.05
21185;BME280;18176;49.502;11.754;2023-02-19T04:14:43;97027.69;;;10.72;88.03
21185;BME280;18176;49.502;11.754;2023-02-19T04:18:50;97021.44;;;10.55;88.68
21185;BME280;18176;49.502;11.754;2023-02-19T04:22:52;97008.78;;;10.57;88.24
21185;BME280;18176;49.502;11.754;2023-02-19T04:26:56;97005.91;;;10.58;87.54
21185;BME280;18176;49.502;11.754;2023-02-19T04:30:56;97041.81;;;10.54;88.03
21185;BME280;18176;49.502;11.754;2023-02-19T04:34:57;97033.06;;;10.42;88.29
21185;BME280;18176;49.502;11.754;2023-02-19T04:38:58;97028.09;;;10.46;88.70
21185;BME280;18176;49.502;11.754;2023-02-19T04:43:01;97043.06;;;10.82;86.93
21185;BME280;18176;49.502;11.754;2023-02-19T04:47:02;97044.25;;;10.56;88.05
21185;BME280;18176;49.502;11.754;2023-02-19T04:51:05;97029.97;;;10.57;87.93
21185;BME280;18176;49.502;11.754;2023-02-19T04:55:07;97032.31;;;10.65;86.60
21185;BME280;18176;49.502;11.754;2023-02-19T04:59:11;97018.09;;;10.59;86.67
21185;BME280;18176;49.502;11.754;2023-02-19T05:03:11;97030.34;;;10.61;85.92
21185;BME280;18176;49.502;11.754;2023-02-19T05:07:12;97040.50;;;10.64;85.60
21185;BME280;18176;49.502;11.754;2023-02-19T05:11:12;97037.97;;;10.39;86.12
21185;BME280;18176;49.502;11.754;2023-02-19T05:15:16;97055.59;;;10.33;86.46
21185;BME280;18176;49.502;11.754;2023-02-19T05:19:16;97060.06;;;10.63;85.29
21185;BME280;18176;49.502;11.754;2023-02-19T05:23:17;97049.38;;;10.39;85.00
21185;BME280;18176;49.502;11.754;2023-02-19T05:27:17;97054.31;;;10.66;83.89
21185;BME280;18176;49.502;11.754;2023-02-19T05:31:20;97036.56;;;10.78;83.34
21185;BME280;18176;49.502;11.754;2023-02-19T05:35:21;97031.13;;;10.49;83.55
21185;BME280;18176;49.502;11.754;2023-02-19T05:39:22;97041.69;;;10.91;82.15
21185;BME280;18176;49.502;11.754;2023-02-19T05:43:22;97038.19;;;10.79;82.35
21185;BME280;18176;49.502;11.754;2023-02-19T05:47:25;97019.09;;;11.00;81.95
21185;BME280;18176;49.502;11.754;2023-02-19T05:51:26;97034.63;;;10.85;82.65
21185;BME280;18176;49.502;11.754;2023-02-19T05:55:27;97034.53;;;10.80;83.69
21185;BME280;18176;49.502;11.754;2023-02-19T05:59:28;97015.81;;;10.51;85.13
21185;BME280;18176;49.502;11.754;2023-02-19T06:03:32;97032.75;;;10.62;83.43
21185;BME280;18176;49.502;11.754;2023-02-19T06:07:34;97030.56;;;10.71;82.59
21185;BME280;18176;49.502;11.754;2023-02-19T06:11:36;97040.06;;;10.90;81.74
21185;BME280;18176;49.502;11.754;2023-02-19T06:15:37;97043.59;;;10.72;82.55
21185;BME280;18176;49.502;11.754;2023-02-19T06:19:41;97066.06;;;10.70;83.12
21185;BME280;18176;49.502;11.754;2023-02-19T06:23:43;97051.19;;;10.69;82.94
21185;BME280;18176;49.502;11.754;2023-02-19T06:27:43;97072.72;;;10.61;83.54
21185;BME280;18176;49.502;11.754;2023-02-19T06:31:44;97071.09;;;10.59;84.76
21185;BME280;18176;49.502;11.754;2023-02-19T06:35:47;97076.66;;;10.70;84.14
21185;BME280;18176;49.502;11.754;2023-02-19T06:39:48;97069.50;;;10.58;84.42
21185;BME280;18176;49.502;11.754;2023-02-19T06:43:49;97089.09;;;10.69;84.23
21185;BME280;18176;49.502;11.754;2023-02-19T06:47:49;97098.84;;;10.57;83.64
21185;BME280;18176;49.502;11.754;2023-02-19T06:51:52;97102.75;;;10.54;82.80
21185;BME280;18176;49.502;11.754;2023-02-19T06:55:57;97099.88;;;10.86;82.18
21185;BME280;18176;49.502;11.754;2023-02-19T06:59:57;97108.47;;;10.70;81.52
21185;BME280;18176;49.502;11.754;2023-02-19T07:03:58;97102.84;;;10.89;80.98
21185;BME280;18176;49.502;11.754;2023-02-19T07:08:02;97103.94;;;11.00;80.23
21185;BME280;18176;49.502;11.754;2023-02-19T07:12:03;97125.28;;;10.64;80.89
21185;BME280;18176;49.502;11.754;2023-02-19T07:16:07;97111.84;;;10.77;80.58
21185;BME280;18176;49.502;11.754;2023-02-19T07:20:09;97126.09;;;10.76;79.85
21185;BME280;18176;49.502;11.754;2023-02-19T07:24:12;97138.38;;;10.88;79.42
21185;BME280;18176;49.502;11.754;2023-02-19T07:28:12;97133.88;;;10.89;78.57
21185;BME280;18176;49.502;11.754;2023-02-19T07:32:13;97148.88;;;10.95;79.20
21185;BME280;18176;49.502;11.754;2023-02-19T07:36:16;97166.41;;;10.96;78.83
21185;BME280;18176;49.502;11.754;2023-02-19T07:40:20;97152.44;;;10.89;78.87
21185;BME280;18176;49.502;11.754;2023-02-19T07:44:20;97156.50;;;11.03;78.70
21185;BME280;18176;49.502;11.754;2023-02-19T07:48:21;97146.28;;;10.77;79.29
21185;BME280;18176;49.502;11.754;2023-02-19T07:52:22;97161.66;;;10.86;79.00
21185;BME280;18176;49.502;11.754;2023-02-19T07:56:25;97190.75;;;10.75;79.25
21185;BME280;18176;49.502;11.754;2023-02-19T08:00:26;97175.81;;;10.92;79.05
21185;BME280;18176;49.502;11.754;2023-02-19T08:04:27;97173.91;;;10.99;79.16
21185;BME280;18176;49.502;11.754;2023-02-19T08:08:27;97180.25;;;10.98;78.28
21185;BME280;18176;49.502;11.754;2023-02-19T08:12:30;97181.19;;;11.15;78.08
21185;BME280;18176;49.502;11.754;2023-02-19T08:16:50;97174.50;;;11.12;77.54
21185;BME280;18176;49.502;11.754;2023-02-19T08:20:53;97154.06;;;11.01;77.49
21185;BME280;18176;49.502;11.754;2023-02-19T08:24:53;97178.56;;;11.15;76.62
21185;BME280;18176;49.502;11.754;2023-02-19T08:28:57;97190.44;;;11.24;76.52
21185;BME280;18176;49.502;11.754;2023-02-19T08:32:59;97212.06;;;11.39;76.06
21185;BME280;18176;49.502;11.754;2023-02-19T08:37:00;97210.56;;;11.02;78.25
21185;BME280;18176;49.502;11.754;2023-02-19T08:41:04;97190.97;;;11.03;78.85
21185;BME280;18176;49.502;11.754;2023-02-19T08:45:09;97214.38;;;11.06;78.78
21185;BME280;18176;49.502;11.754;2023-02-19T08:49:09;97212.59;;;11.18;78.93
21185;BME280;18176;49.502;11.754;2023-02-19T08:53:10;97207.47;;;11.05;78.04
21185;BME280;18176;49.502;11.754;2023-02-19T08:57:11;97215.72;;;11.26;77.65
21185;BME280;18176;49.502;11.754;2023-02-19T09:01:16;97210.81;;;11.53;75.14
21185;BME280;18176;49.502;11.754;2023-02-19T09:05:17;97232.84;;;11.54;73.90
21185;BME280;18176;49.502;11.754;2023-02-19T09:09:18;97244.78;;;11.86;73.33
21185;BME280;18176;49.502;11.754;2023-02-19T09:13:18;97219.88;;;11.98;72.40
21185;BME280;18176;49.502;11.754;2023-02-19T09:17:21;97214.06;;;11.55;74.55
21185;BME280;18176;49.502;11.754;2023-02-19T09:21:22;97231.84;;;11.66;74.10
21185;BME280;18176;49.502;11.754;2023-02-19T09:25:23;97235.38;;;11.49;74.38
21185;BME280;18176;49.502;11.754;2023-02-19T09:29:25;97251.38;;;11.42;74.24
21185;BME280;18176;49.502;11.754;2023-02-19T09:33:28;97243.66;;;11.93;73.01
21185;BME280;18176;49.502;11.754;2023-02-19T09:37:28;97254.53;;;12.15;70.61
21185;BME280;18176;49.502;11.754;2023-02-19T09:41:34;97261.81;;;12.08;70.70
21185;BME280;18176;49.502;11.754;2023-02-19T09:45:36;97263.53;;;12.03;71.12
21185;BME280;18176;49.502;11.754;2023-02-19T09:49:41;97296.63;;;11.77;70.94
21185;BME280;18176;49.502;11.754;2023-02-19T09:53:49;97267.00;;;12.26;70.89
21185;BME280;18176;49.502;11.754;2023-02-19T09:57:51;97276.56;;;12.27;69.71
21185;BME280;18176;49.502;11.754;2023-02-19T10:02:01;97270.47;;;12.04;70.93
21185;BME280;18176;49.502;11.754;2023-02-19T10:06:13;97284.78;;;12.26;69.33
21185;BME280;18176;49.502;11.754;2023-02-19T10:10:26;97293.19;;;12.11;70.88
21185;BME280;18176;49.502;11.754;2023-02-19T10:14:35;97280.97;;;11.98;73.23
21185;BME280;18176;49.502;11.754;2023-02-19T10:18:41;97309.69;;;11.78;74.61
21185;BME280;18176;49.502;11.754;2023-02-19T10:22:45;97299.97;;;11.72;76.62
21185;BME280;18176;49.502;11.754;2023-02-19T10:26:46;97304.66;;;11.29;79.14
21185;BME280;18176;49.502;11.754;2023-02-19T10:30:52;97313.50;;;11.23;80.08
21185;BME280;18176;49.502;11.754;2023-02-19T10:35:11;97319.50;;;11.48;81.29
21185;BME280;18176;49.502;11.754;2023-02-19T10:39:41;97320.13;;;11.32;81.77
21185;BME280;18176;49.502;11.754;2023-02-19T10:43:50;97320.47;;;11.36;81.79
21185;BME280;18176;49.502;11.754;2023-02-19T10:47:52;97327.94;;;11.98;81.68
21185;BME280;18176;49.502;11.754;2023-02-19T10:51:55;97334.88;;;11.87;80.58
21185;BME280;18176;49.502;11.754;2023-02-19T10:56:11;97345.56;;;11.51;81.87
21185;BME280;18176;49.502;11.754;2023-02-19T11:00:24;97334.94;;;11.51;83.65
21185;BME280;18176;49.502;11.754;2023-02-19T11:04:28;97315.34;;;11.52;82.43
21185;BME280;18176;49.502;11.754;2023-02-19T11:08:48;97333.97;;;11.34;82.97
21185;BME280;18176;49.502;11.754;2023-02-19T11:13:13;97331.69;;;11.49;82.83
21185;BME280;18176;49.502;11.754;2023-02-19T11:17:23;97338.75;;;11.44;81.51
21185;BME280;18176;49.502;11.754;2023-02-19T11:21:26;97347.00;;;11.36;82.21
21185;BME280;18176;49.502;11.754;2023-02-19T11:25:30;97347.91;;;11.59;81.14
21185;BME280;18176;49.502;11.754;2023-02-19T11:29:33;97334.50;;;11.54;80.42
21185;BME280;18176;49.502;11.754;2023-02-19T11:33:34;97348.63;;;11.66;80.76
21185;BME280;18176;49.502;11.754;2023-02-19T11:37:34;97359.34;;;11.60;79.93
21185;BME280;18176;49.502;11.754;2023-02-19T11:42:07;97357.50;;;11.12;81.54
21185;BME280;18176;49.502;11.754;2023-02-19T11:46:21;97361.72;;;11.02;82.37
21185;BME280;18176;49.502;11.754;2023-02-19T11:50:35;97349.47;;;11.01;82.87
21185;BME280;18176;49.502;11.754;2023-02-19T11:54:49;97369.81;;;11.07;83.64
21185;BME280;18176;49.502;11.754;2023-02-19T11:59:00;97383.94;;;11.19;84.26
21185;BME280;18176;49.502;11.754;2023-02-19T12:08:33;97378.91;;;12.30;79.71
21185;BME280;18176;49.502;11.754;2023-02-19T12:12:51;97380.19;;;12.62;78.22
21185;BME280;18176;49.502;11.754;2023-02-19T12:17:05;97387.03;;;12.69;75.94
21185;BME280;18176;49.502;11.754;2023-02-19T12:21:26;97395.88;;;12.06;77.89
21185;BME280;18176;49.502;11.754;2023-02-19T12:25:48;97389.06;;;12.10;77.02
21185;BME280;18176;49.502;11.754;2023-02-19T12:35:23;97387.25;;;11.80;79.41
21185;BME280;18176;49.502;11.754;2023-02-19T12:39:40;97382.56;;;11.64;80.20
21185;BME280;18176;49.502;11.754;2023-02-19T12:43:54;97370.00;;;11.23;82.01
21185;BME280;18176;49.502;11.754;2023-02-19T12:48:01;97368.84;;;11.01;83.04
21185;BME280;18176;49.502;11.754;2023-02-19T12:52:09;97374.25;;;11.43;82.06
21185;BME280;18176;49.502;11.754;2023-02-19T12:56:20;97397.06;;;11.32;82.12
21185;BME280;18176;49.502;11.754;2023-02-19T13:00:32;97401.63;;;11.25;81.55
21185;BME280;18176;49.502;11.754;2023-02-19T13:04:42;97400.03;;;11.54;81.12
21185;BME280;18176;49.502;11.754;2023-02-19T13:08:52;97393.31;;;11.51;80.63
21185;BME280;18176;49.502;11.754;2023-02-19T13:13:06;97400.97;;;11.59;81.99
21185;BME280;18176;49.502;11.754;2023-02-19T13:17:35;97385.34;;;11.51;80.99
21185;BME280;18176;49.502;11.754;2023-02-19T13:21:37;97418.97;;;11.57;80.16
21185;BME280;18176;49.502;11.754;2023-02-19T13:26:14;97393.34;;;11.33;81.07
21185;BME280;18176;49.502;11.754;2023-02-19T13:30:58;97404.28;;;11.25;81.28
21185;BME280;18176;49.502;11.754;2023-02-19T13:35:23;97396.94;;;11.57;81.19
21185;BME280;18176;49.502;11.754;2023-02-19T13:39:24;97396.59;;;11.53;78.98
21185;BME280;18176;49.502;11.754;2023-02-19T13:43:30;97408.41;;;11.87;78.91
21185;BME280;18176;49.502;11.754;2023-02-19T13:47:58;97407.13;;;11.60;78.84
21185;BME280;18176;49.502;11.754;2023-02-19T13:52:34;97409.25;;;11.51;79.70
21185;BME280;18176;49.502;11.754;2023-02-19T13:56:39;97402.03;;;11.40;79.79
21185;BME280;18176;49.502;11.754;2023-02-19T14:00:59;97410.69;;;11.65;79.89
21185;BME280;18176;49.502;11.754;2023-02-19T14:05:04;97422.97;;;11.48;79.88
21185;BME280;18176;49.502;11.754;2023-02-19T14:09:44;97422.44;;;12.06;77.52
21185;BME280;18176;49.502;11.754;2023-02-19T14:14:01;97426.22;;;11.98;76.70
21185;BME280;18176;49.502;11.754;2023-02-19T14:18:40;97417.56;;;12.03;76.23
21185;BME280;18176;49.502;11.754;2023-02-19T14:23:07;97425.47;;;12.32;75.54
21185;BME280;18176;49.502;11.754;2023-02-19T14:27:12;97430.97;;;12.60;73.66
21185;BME280;18176;49.502;11.754;2023-02-19T14:31:23;97431.19;;;12.59;75.01
21185;BME280;18176;49.502;11.754;2023-02-19T14:35:31;97412.09;;;12.39;74.25
21185;BME280;18176;49.502;11.754;2023-02-19T14:39:36;97442.63;;;12.71;72.82
21185;BME280;18176;49.502;11.754;2023-02-19T14:43:42;97447.03;;;12.54;73.18
21185;BME280;18176;49.502;11.754;2023-02-19T14:47:45;97448.91;;;12.24;73.01
21185;BME280;18176;49.502;11.754;2023-02-19T14:51:51;97459.84;;;12.16;73.26
21185;BME280;18176;49.502;11.754;2023-02-19T14:55:55;97462.50;;;12.16;74.04
21185;BME280;18176;49.502;11.754;2023-02-19T15:00:03;97461.84;;;12.20;74.03
21185;BME280;18176;49.502;11.754;2023-02-19T15:04:05;97468.25;;;11.71;75.30
21185;BME280;18176;49.502;11.754;2023-02-19T15:08:10;97466.47;;;11.47;76.30
21185;BME280;18176;49.502;11.754;2023-02-19T15:12:16;97471.53;;;11.67;76.25
21185;BME280;18176;49.502;11.754;2023-02-19T15:16:23;97467.03;;;11.49;75.89
21185;BME280;18176;49.502;11.754;2023-02-19T15:20:28;97461.94;;;11.84;74.93
21185;BME280;18176;49.502;11.754;2023-02-19T15:24:30;97469.41;;;11.75;74.38
21185;BME280;18176;49.502;11.754;2023-02-19T15:28:33;97459.81;;;11.92;74.26
21185;BME280;18176;49.502;11.754;2023-02-19T15:32:36;97456.19;;;11.87;74.16
21185;BME280;18176;49.502;11.754;2023-02-19T15:36:36;97476.03;;;11.66;74.19
21185;BME280;18176;49.502;11.754;2023-02-19T15:40:38;97476.31;;;11.58;74.55
21185;BME280;18176;49.502;11.754;2023-02-19T15:44:51;97475.22;;;11.48;74.30
21185;BME280;18176;49.502;11.754;2023-02-19T15:49:02;97464.97;;;11.33;75.06
21185;BME280;18176;49.502;11.754;2023-02-19T15:53:08;97481.22;;;11.43;74.63
21185;BME280;18176;49.502;11.754;2023-02-19T15:57:18;97497.28;;;11.30;74.68
21185;BME280;18176;49.502;11.754;2023-02-19T16:01:24;97484.28;;;11.40;75.25
21185;BME280;18176;49.502;11.754;2023-02-19T16:05:29;97501.09;;;11.52;74.53
21185;BME280;18176;49.502;11.754;2023-02-19T16:09:38;97500.53;;;11.32;73.72
21185;BME280;18176;49.502;11.754;2023-02-19T16:13:38;97515.69;;;11.25;74.46
21185;BME280;18176;49.502;11.754;2023-02-19T16:17:43;97526.88;;;11.27;74.39
21185;BME280;18176;49.502;11.754;2023-02-19T16:21:47;97521.59;;;11.45;73.70
21185;BME280;18176;49.502;11.754;2023-02-19T16:25:48;97520.84;;;11.20;74.25
21185;BME280;18176;49.502;11.754;2023-02-19T16:29:50;97519.09;;;11.07;73.59
21185;BME280;18176;49.502;11.754;2023-02-19T16:33:51;97531.59;;;11.25;73.81
21185;BME280;18176;49.502;11.754;2023-02-19T16:38:00;97536.28;;;11.05;75.06
21185;BME280;18176;49.502;11.754;2023-02-19T16:42:16;97532.47;;;11.19;74.51
21185;BME280;18176;49.502;11.754;2023-02-19T16:46:16;97539.84;;;11.17;74.19
21185;BME280;18176;49.502;11.754;2023-02-19T16:50:21;97545.53;;;11.20;74.21
21185;BME280;18176;49.502;11.754;2023-02-19T16:54:25;97546.66;;;11.49;73.49
21185;BME280;18176;49.502;11.754;2023-02-19T16:58:26;97543.78;;;11.33;73.84
21185;BME280;18176;49.502;11.754;2023-02-19T17:02:26;97552.63;;;11.45;73.44
21185;BME280;18176;49.502;11.754;2023-02-19T17:06:27;97549.88;;;11.33;73.52
21185;BME280;18176;49.502;11.754;2023-02-19T17:10:31;97564.69;;;11.22;73.61
21185;BME280;18176;49.502;11.754;2023-02-19T17:14:32;97569.94;;;11.29;73.47
21185;BME280;18176;49.502;11.754;2023-02-19T17:18:33;97583.03;;;10.99;74.69
21185;BME280;18176;49.502;11.754;2023-02-19T17:22:34;97589.28;;;11.11;74.20
21185;BME280;18176;49.502;11.754;2023-02-19T17:26:37;97584.34;;;11.15;74.36
21185;BME280;18176;49.502;11.754;2023-02-19T17:30:37;97605.56;;;11.15;74.95
21185;BME280;18176;49.502;11.754;2023-02-19T17:34:38;97614.59;;;11.32;74.13
21185;BME280;18176;49.502;11.754;2023-02-19T17:38:39;97624.63;;;11.30;74.47
21185;BME280;18176;49.502;11.754;2023-02-19T17:42:42;97630.03;;;11.17;74.25
21185;BME280;18176;49.502;11.754;2023-02-19T17:46:46;97645.09;;;11.23;74.00
21185;BME280;18176;49.502;11.754;2023-02-19T17:50:48;97632.66;;;11.17;74.21
21185;BME280;18176;49.502;11.754;2023-02-19T17:54:48;97650.28;;;11.36;73.97
21185;BME280;18176;49.502;11.754;2023-02-19T17:58:53;97655.25;;;11.26;74.13
21185;BME280;18176;49.502;11.754;2023-02-19T18:02:55;97664.66;;;11.22;74.88
21185;BME280;18176;49.502;11.754;2023-02-19T18:06:56;97672.97;;;11.01;75.64
21185;BME280;18176;49.502;11.754;2023-02-19T18:10:57;97662.06;;;11.40;74.47
21185;BME280;18176;49.502;11.754;2023-02-19T18:15:01;97669.38;;;11.45;73.81
21185;BME280;18176;49.502;11.754;2023-02-19T18:19:01;97682.00;;;11.24;74.93
21185;BME280;18176;49.502;11.754;2023-02-19T18:23:02;97698.22;;;11.41;74.53
21185;BME280;18176;49.502;11.754;2023-02-19T18:27:03;97700.03;;;11.16;75.41
21185;BME280;18176;49.502;11.754;2023-02-19T18:31:07;97698.16;;;11.23;75.50
21185;BME280;18176;49.502;11.754;2023-02-19T18:35:09;97690.06;;;11.36;75.25
21185;BME280;18176;49.502;11.754;2023-02-19T18:39:09;97702.03;;;11.45;75.07
21185;BME280;18176;49.502;11.754;2023-02-19T18:43:10;97713.53;;;11.39;75.50
21185;BME280;18176;49.502;11.754;2023-02-19T18:47:15;97721.91;;;11.36;75.46
21185;BME280;18176;49.502;11.754;2023-02-19T18:51:16;97724.94;;;11.40;75.44
21185;BME280;18176;49.502;11.754;2023-02-19T18:55:18;97717.56;;;11.17;75.92
21185;BME280;18176;49.502;11.754;2023-02-19T18:59:19;97718.31;;;11.24;75.99
21185;BME280;18176;49.502;11.754;2023-02-19T19:03:22;97710.72;;;11.34;75.22
21185;BME280;18176;49.502;11.754;2023-02-19T19:07:23;97721.69;;;11.38;74.19
21185;BME280;18176;49.502;11.754;2023-02-19T19:11:24;97726.56;;;11.65;73.49
21185;BME280;18176;49.502;11.754;2023-02-19T19:15:26;97723.16;;;11.58;73.84
21185;BME280;18176;49.502;11.754;2023-02-19T19:19:29;97696.91;;;11.50;73.77
21185;BME280;18176;49.502;11.754;2023-02-19T19:23:33;97723.94;;;11.65;73.56
21185;BME280;18176;49.502;11.754;2023-02-19T19:27:37;97731.41;;;11.50;74.29
21185;BME280;18176;49.502;11.754;2023-02-19T19:31:38;97709.19;;;11.45;74.29
21185;BME280;18176;49.502;11.754;2023-02-19T19:35:41;97736.28;;;11.53;74.47
21185;BME280;18176;49.502;11.754;2023-02-19T19:39:42;97749.38;;;11.48;74.62
21185;BME280;18176;49.502;11.754;2023-02-19T19:43:43;97748.44;;;11.67;74.31
21185;BME280;18176;49.502;11.754;2023-02-19T19:47:46;97752.97;;;11.60;74.13
21185;BME280;18176;49.502;11.754;2023-02-19T19:51:50;97749.06;;;11.69;73.46
21185;BME280;18176;49.502;11.754;2023-02-19T19:55:54;97749.28;;;11.61;74.05
21185;BME280;18176;49.502;11.754;2023-02-19T19:59:55;97756.13;;;11.51;74.14
21185;BME280;18176;49.502;11.754;2023-02-19T20:03:56;97755.00;;;11.58;74.27
21185;BME280;18176;49.502;11.754;2023-02-19T20:08:00;97742.38;;;11.60;73.51
21185;BME280;18176;49.502;11.754;2023-02-19T20:12:01;97766.03;;;11.62;73.12
21185;BME280;18176;49.502;11.754;2023-02-19T20:16:03;97756.59;;;11.66;72.99
21185;BME280;18176;49.502;11.754;2023-02-19T20:20:09;97753.06;;;11.47;73.37
21185;BME280;18176;49.502;11.754;2023-02-19T20:24:13;97770.97;;;11.27;74.45
21185;BME280;18176;49.502;11.754;2023-02-19T20:28:14;97766.94;;;11.49;73.25
21185;BME280;18176;49.502;11.754;2023-02-19T20:32:16;97773.00;;;11.25;73.22
21185;BME280;18176;49.502;11.754;2023-02-19T20:36:18;97784.22;;;11.27;72.96
21185;BME280;18176;49.502;11.754;2023-02-19T20:40:22;97788.97;;;11.50;72.59
21185;BME280;18176;49.502;11.754;2023-02-19T20:44:27;97775.56;;;11.07;73.88
21185;BME280;18176;49.502;11.754;2023-02-19T20:48:28;97777.78;;;11.10;73.45
21185;BME280;18176;49.502;11.754;2023-02-19T20:52:29;97786.69;;;11.22;73.14
21185;BME280;18176;49.502;11.754;2023-02-19T20:56:35;97790.81;;;11.18;73.50
21185;BME280;18176;49.502;11.754;2023-02-19T21:00:36;97784.28;;;11.20;73.23
21185;BME280;18176;49.502;11.754;2023-02-19T21:04:37;97767.03;;;11.05;73.59
21185;BME280;18176;49.502;11.754;2023-02-19T21:08:37;97772.41;;;11.23;72.52
21185;BME280;18176;49.502;11.754;2023-02-19T21:12:42;97779.69;;;11.34;72.80
21185;BME280;18176;49.502;11.754;2023-02-19T21:16:43;97767.16;;;11.10;73.49
21185;BME280;18176;49.502;11.754;2023-02-19T21:20:44;97774.94;;;11.11;73.32
21185;BME280;18176;49.502;11.754;2023-02-19T21:24:48;97767.22;;;11.03;73.63
21185;BME280;18176;49.502;11.754;2023-02-19T21:28:52;97770.91;;;11.02;73.60
21185;BME280;18176;49.502;11.754;2023-02-19T21:32:55;97767.06;;;10.92;74.19
21185;BME280;18176;49.502;11.754;2023-02-19T21:36:57;97768.03;;;11.04;73.46